sensor_id;sensor_type;location;lat;lon;timestamp;P1;durP1;ratioP1;P2;durP2;ratioP2
37983;SDS011;64625;50.882;4.376;2022-12-10T00:00:42;77.25;;;31.00;;
37983;SDS011;64625;50.882;4.376;2022-12-10T00:03:08;75.28;;;29.42;;
37983;SDS011;64625;50.882;4.376;2022-12-10T00:05:34;60.10;;;26.70;;
37983;SDS011;64625;50.882;4.376;2022-12-10T00:08:02;67.82;;;26.02;;
37983;SDS011;64625;50.882;4.376;2022-12-10T00:10:28;66.32;;;29.85;;
37983;SDS011;64625;50.882;4.376;2022-12-10T00:12:53;66.60;;;29.50;;
37983;SDS011;64625;50.882;4.376;2022-12-10T00:15:19;65.47;;;28.15;;
37983;SDS011;64625;50.882;4.376;2022-12-10T00:17:45;59.83;;;27.23;;
37983;SDS011;64625;50.882;4.376;2022-12-10T00:20:10;57.55;;;26.05;;
37983;SDS011;64625;50.882;4.376;2022-12-10T00:22:36;74.68;;;29.02;;
37983;SDS011;64625;50.882;4.376;2022-12-10T00:25:02;61.65;;;28.55;;
37983;SDS011;64625;50.882;4.376;2022-12-10T00:27:28;83.60;;;29.30;;
37983;SDS011;64625;50.882;4.376;2022-12-10T00:29:56;71.35;;;29.42;;
37983;SDS011;64625;50.882;4.376;2022-12-10T00:32:21;74.22;;;29.25;;
37983;SDS011;64625;50.882;4.376;2022-12-10T00:34:47;68.78;;;28.23;;
37983;SDS011;64625;50.882;4.376;2022-12-10T00:37:13;76.47;;;29.98;;
37983;SDS011;64625;50.882;4.376;2022-12-10T00:39:39;70.45;;;28.48;;
37983;SDS011;64625;50.882;4.376;2022-12-10T00:42:04;78.88;;;32.45;;
37983;SDS011;64625;50.882;4.376;2022-12-10T00:44:30;72.90;;;30.98;;
37983;SDS011;64625;50.882;4.376;2022-12-10T00:46:56;74.10;;;29.73;;
37983;SDS011;64625;50.882;4.376;2022-12-10T00:49:22;80.00;;;31.92;;
37983;SDS011;64625;50.882;4.376;2022-12-10T00:51:49;79.38;;;31.23;;
37983;SDS011;64625;50.882;4.376;2022-12-10T00:54:15;75.28;;;31.10;;
37983;SDS011;64625;50.882;4.376;2022-12-10T00:56:41;75.40;;;30.40;;
37983;SDS011;64625;50.882;4.376;2022-12-10T00:59:07;80.47;;;31.73;;
37983;SDS011;64625;50.882;4.376;2022-12-10T01:01:35;77.63;;;32.20;;
37983;SDS011;64625;50.882;4.376;2022-12-10T01:04:08;73.60;;;31.13;;
37983;SDS011;64625;50.882;4.376;2022-12-10T01:06:43;82.57;;;33.33;;
37983;SDS011;64625;50.882;4.376;2022-12-10T01:09:28;82.57;;;32.08;;
37983;SDS011;64625;50.882;4.376;2022-12-10T01:11:57;80.97;;;30.38;;
37983;SDS011;64625;50.882;4.376;2022-12-10T01:16:55;69.85;;;28.88;;
37983;SDS011;64625;50.882;4.376;2022-12-10T01:19:23;80.88;;;33.38;;
37983;SDS011;64625;50.882;4.376;2022-12-10T01:21:50;70.70;;;29.25;;
37983;SDS011;64625;50.882;4.376;2022-12-10T01:24:20;79.25;;;32.42;;
37983;SDS011;64625;50.882;4.376;2022-12-10T01:26:47;73.05;;;29.20;;
37983;SDS011;64625;50.882;4.376;2022-12-10T01:29:12;77.90;;;33.10;;
37983;SDS011;64625;50.882;4.376;2022-12-10T01:31:38;85.53;;;32.60;;
37983;SDS011;64625;50.882;4.376;2022-12-10T01:34:05;74.45;;;32.17;;
37983;SDS011;64625;50.882;4.376;2022-12-10T01:36:34;78.53;;;34.20;;
37983;SDS011;64625;50.882;4.376;2022-12-10T01:39:03;75.47;;;30.05;;
37983;SDS011;64625;50.882;4.376;2022-12-10T01:41:34;82.18;;;32.92;;
37983;SDS011;64625;50.882;4.376;2022-12-10T01:46:39;71.40;;;29.95;;
37983;SDS011;64625;50.882;4.376;2022-12-10T01:49:07;71.15;;;32.00;;
37983;SDS011;64625;50.882;4.376;2022-12-10T01:51:37;75.70;;;32.50;;
37983;SDS011;64625;50.882;4.376;2022-12-10T01:54:06;74.38;;;33.25;;
37983;SDS011;64625;50.882;4.376;2022-12-10T01:56:38;77.35;;;33.85;;
37983;SDS011;64625;50.882;4.376;2022-12-10T01:59:09;81.53;;;32.65;;
37983;SDS011;64625;50.882;4.376;2022-12-10T02:04:14;80.15;;;32.92;;
37983;SDS011;64625;50.882;4.376;2022-12-10T02:07:05;77.80;;;34.28;;
37983;SDS011;64625;50.882;4.376;2022-12-10T02:12:49;83.50;;;36.28;;
37983;SDS011;64625;50.882;4.376;2022-12-10T02:15:30;80.85;;;35.22;;
37983;SDS011;64625;50.882;4.376;2022-12-10T02:18:34;82.60;;;35.63;;
37983;SDS011;64625;50.882;4.376;2022-12-10T02:21:00;88.18;;;34.60;;
37983;SDS011;64625;50.882;4.376;2022-12-10T02:23:37;85.82;;;35.97;;
37983;SDS011;64625;50.882;4.376;2022-12-10T02:32:00;76.82;;;34.92;;
37983;SDS011;64625;50.882;4.376;2022-12-10T02:34:45;84.68;;;36.53;;
37983;SDS011;64625;50.882;4.376;2022-12-10T02:37:16;86.85;;;37.35;;
37983;SDS011;64625;50.882;4.376;2022-12-10T02:39:48;78.00;;;33.00;;
37983;SDS011;64625;50.882;4.376;2022-12-10T02:42:18;78.22;;;32.53;;
37983;SDS011;64625;50.882;4.376;2022-12-10T02:44:46;85.03;;;39.05;;
37983;SDS011;64625;50.882;4.376;2022-12-10T02:47:15;79.95;;;35.92;;
37983;SDS011;64625;50.882;4.376;2022-12-10T02:49:42;70.63;;;34.55;;
37983;SDS011;64625;50.882;4.376;2022-12-10T02:52:13;79.55;;;35.08;;
37983;SDS011;64625;50.882;4.376;2022-12-10T02:54:46;84.70;;;35.97;;
37983;SDS011;64625;50.882;4.376;2022-12-10T02:59:55;83.70;;;38.03;;
37983;SDS011;64625;50.882;4.376;2022-12-10T03:08:28;91.68;;;38.47;;
37983;SDS011;64625;50.882;4.376;2022-12-10T03:16:37;87.88;;;38.25;;
37983;SDS011;64625;50.882;4.376;2022-12-10T03:19:10;91.60;;;38.60;;
37983;SDS011;64625;50.882;4.376;2022-12-10T03:21:39;89.05;;;38.42;;
37983;SDS011;64625;50.882;4.376;2022-12-10T03:24:08;103.72;;;40.08;;
37983;SDS011;64625;50.882;4.376;2022-12-10T03:26:39;85.50;;;38.40;;
37983;SDS011;64625;50.882;4.376;2022-12-10T03:29:10;88.53;;;38.20;;
37983;SDS011;64625;50.882;4.376;2022-12-10T03:31:43;95.13;;;39.28;;
37983;SDS011;64625;50.882;4.376;2022-12-10T03:34:10;94.82;;;42.47;;
37983;SDS011;64625;50.882;4.376;2022-12-10T03:36:37;105.65;;;41.28;;
37983;SDS011;64625;50.882;4.376;2022-12-10T03:39:04;100.28;;;42.63;;
37983;SDS011;64625;50.882;4.376;2022-12-10T03:41:30;109.00;;;43.53;;
37983;SDS011;64625;50.882;4.376;2022-12-10T03:43:57;93.55;;;38.85;;
37983;SDS011;64625;50.882;4.376;2022-12-10T03:46:25;105.85;;;41.70;;
37983;SDS011;64625;50.882;4.376;2022-12-10T03:48:55;116.32;;;43.05;;
37983;SDS011;64625;50.882;4.376;2022-12-10T03:51:22;117.28;;;42.67;;
37983;SDS011;64625;50.882;4.376;2022-12-10T03:53:48;98.47;;;40.72;;
37983;SDS011;64625;50.882;4.376;2022-12-10T03:56:15;113.30;;;38.80;;
37983;SDS011;64625;50.882;4.376;2022-12-10T03:58:41;97.78;;;38.83;;
37983;SDS011;64625;50.882;4.376;2022-12-10T04:01:07;93.53;;;38.03;;
37983;SDS011;64625;50.882;4.376;2022-12-10T04:03:37;99.88;;;39.15;;
37983;SDS011;64625;50.882;4.376;2022-12-10T04:08:32;101.85;;;36.22;;
37983;SDS011;64625;50.882;4.376;2022-12-10T04:11:02;102.35;;;42.58;;
37983;SDS011;64625;50.882;4.376;2022-12-10T04:13:30;110.93;;;39.28;;
37983;SDS011;64625;50.882;4.376;2022-12-10T04:16:15;104.40;;;44.42;;
37983;SDS011;64625;50.882;4.376;2022-12-10T04:19:01;112.53;;;45.28;;
37983;SDS011;64625;50.882;4.376;2022-12-10T04:21:30;108.90;;;43.58;;
37983;SDS011;64625;50.882;4.376;2022-12-10T04:24:17;130.82;;;45.58;;
37983;SDS011;64625;50.882;4.376;2022-12-10T04:27:05;133.88;;;46.75;;
37983;SDS011;64625;50.882;4.376;2022-12-10T04:29:34;111.20;;;43.20;;
37983;SDS011;64625;50.882;4.376;2022-12-10T04:32:00;96.45;;;42.38;;
37983;SDS011;64625;50.882;4.376;2022-12-10T04:34:26;113.57;;;41.58;;
37983;SDS011;64625;50.882;4.376;2022-12-10T04:36:52;107.70;;;41.92;;
37983;SDS011;64625;50.882;4.376;2022-12-10T04:39:18;107.60;;;42.35;;
37983;SDS011;64625;50.882;4.376;2022-12-10T04:41:45;119.03;;;41.35;;
37983;SDS011;64625;50.882;4.376;2022-12-10T04:44:12;114.00;;;46.97;;
37983;SDS011;64625;50.882;4.376;2022-12-10T04:46:38;132.98;;;44.15;;
37983;SDS011;64625;50.882;4.376;2022-12-10T04:49:04;123.05;;;41.63;;
37983;SDS011;64625;50.882;4.376;2022-12-10T04:51:30;119.32;;;41.60;;
37983;SDS011;64625;50.882;4.376;2022-12-10T04:53:57;125.50;;;43.22;;
37983;SDS011;64625;50.882;4.376;2022-12-10T04:56:26;119.65;;;42.05;;
37983;SDS011;64625;50.882;4.376;2022-12-10T04:58:52;107.47;;;38.22;;
37983;SDS011;64625;50.882;4.376;2022-12-10T05:01:23;104.18;;;34.90;;
37983;SDS011;64625;50.882;4.376;2022-12-10T05:03:50;115.18;;;39.92;;
37983;SDS011;64625;50.882;4.376;2022-12-10T05:06:16;112.57;;;36.78;;
37983;SDS011;64625;50.882;4.376;2022-12-10T05:08:43;108.22;;;38.42;;
37983;SDS011;64625;50.882;4.376;2022-12-10T05:11:13;102.20;;;38.17;;
37983;SDS011;64625;50.882;4.376;2022-12-10T05:13:41;108.03;;;38.72;;
37983;SDS011;64625;50.882;4.376;2022-12-10T05:16:08;116.25;;;38.58;;
37983;SDS011;64625;50.882;4.376;2022-12-10T05:18:36;113.72;;;40.47;;
37983;SDS011;64625;50.882;4.376;2022-12-10T05:21:03;103.63;;;36.47;;
37983;SDS011;64625;50.882;4.376;2022-12-10T05:23:31;119.65;;;38.05;;
37983;SDS011;64625;50.882;4.376;2022-12-10T05:26:01;115.18;;;37.70;;
37983;SDS011;64625;50.882;4.376;2022-12-10T05:28:32;102.95;;;37.65;;
37983;SDS011;64625;50.882;4.376;2022-12-10T05:31:01;117.22;;;39.83;;
37983;SDS011;64625;50.882;4.376;2022-12-10T05:33:27;113.40;;;41.00;;
37983;SDS011;64625;50.882;4.376;2022-12-10T05:35:53;112.20;;;40.92;;
37983;SDS011;64625;50.882;4.376;2022-12-10T05:38:23;111.13;;;38.90;;
37983;SDS011;64625;50.882;4.376;2022-12-10T05:40:50;112.85;;;42.72;;
37983;SDS011;64625;50.882;4.376;2022-12-10T05:43:16;108.70;;;37.60;;
37983;SDS011;64625;50.882;4.376;2022-12-10T05:45:43;105.07;;;39.55;;
37983;SDS011;64625;50.882;4.376;2022-12-10T05:48:09;109.07;;;35.63;;
37983;SDS011;64625;50.882;4.376;2022-12-10T05:50:36;125.78;;;44.35;;
37983;SDS011;64625;50.882;4.376;2022-12-10T05:53:02;110.85;;;38.47;;
37983;SDS011;64625;50.882;4.376;2022-12-10T05:55:28;121.93;;;38.10;;
37983;SDS011;64625;50.882;4.376;2022-12-10T05:57:57;130.77;;;39.50;;
37983;SDS011;64625;50.882;4.376;2022-12-10T06:00:22;112.47;;;38.67;;
37983;SDS011;64625;50.882;4.376;2022-12-10T06:02:51;110.32;;;36.38;;
37983;SDS011;64625;50.882;4.376;2022-12-10T06:05:18;111.45;;;37.88;;
37983;SDS011;64625;50.882;4.376;2022-12-10T06:07:44;119.03;;;40.72;;
37983;SDS011;64625;50.882;4.376;2022-12-10T06:10:10;128.82;;;39.92;;
37983;SDS011;64625;50.882;4.376;2022-12-10T06:12:36;118.45;;;39.95;;
37983;SDS011;64625;50.882;4.376;2022-12-10T06:15:03;108.88;;;39.45;;
37983;SDS011;64625;50.882;4.376;2022-12-10T06:17:30;110.90;;;36.30;;
37983;SDS011;64625;50.882;4.376;2022-12-10T06:19:57;108.90;;;39.35;;
37983;SDS011;64625;50.882;4.376;2022-12-10T06:22:23;112.45;;;37.42;;
37983;SDS011;64625;50.882;4.376;2022-12-10T06:24:48;105.18;;;37.10;;
37983;SDS011;64625;50.882;4.376;2022-12-10T06:27:14;111.68;;;36.55;;
37983;SDS011;64625;50.882;4.376;2022-12-10T06:29:40;101.65;;;36.92;;
37983;SDS011;64625;50.882;4.376;2022-12-10T06:32:06;104.97;;;37.97;;
37983;SDS011;64625;50.882;4.376;2022-12-10T06:34:32;97.13;;;35.05;;
37983;SDS011;64625;50.882;4.376;2022-12-10T06:36:58;88.43;;;32.97;;
37983;SDS011;64625;50.882;4.376;2022-12-10T06:39:24;92.55;;;33.67;;
37983;SDS011;64625;50.882;4.376;2022-12-10T06:41:49;91.30;;;31.67;;
37983;SDS011;64625;50.882;4.376;2022-12-10T06:44:16;95.05;;;31.42;;
37983;SDS011;64625;50.882;4.376;2022-12-10T06:46:42;97.47;;;31.15;;
37983;SDS011;64625;50.882;4.376;2022-12-10T06:49:08;108.05;;;33.22;;
37983;SDS011;64625;50.882;4.376;2022-12-10T06:51:34;106.68;;;33.22;;
37983;SDS011;64625;50.882;4.376;2022-12-10T06:54:00;111.45;;;34.47;;
37983;SDS011;64625;50.882;4.376;2022-12-10T06:56:25;115.10;;;35.63;;
37983;SDS011;64625;50.882;4.376;2022-12-10T06:58:51;95.75;;;33.42;;
37983;SDS011;64625;50.882;4.376;2022-12-10T07:01:18;110.93;;;35.53;;
37983;SDS011;64625;50.882;4.376;2022-12-10T07:03:48;112.80;;;38.28;;
37983;SDS011;64625;50.882;4.376;2022-12-10T07:06:15;110.40;;;39.72;;
37983;SDS011;64625;50.882;4.376;2022-12-10T07:08:42;107.55;;;36.13;;
37983;SDS011;64625;50.882;4.376;2022-12-10T07:11:09;112.45;;;38.05;;
37983;SDS011;64625;50.882;4.376;2022-12-10T07:13:36;128.10;;;34.78;;
37983;SDS011;64625;50.882;4.376;2022-12-10T07:16:07;91.97;;;31.52;;
37983;SDS011;64625;50.882;4.376;2022-12-10T07:18:42;118.20;;;33.83;;
37983;SDS011;64625;50.882;4.376;2022-12-10T07:24:10;87.93;;;32.00;;
37983;SDS011;64625;50.882;4.376;2022-12-10T07:26:42;102.65;;;33.08;;
37983;SDS011;64625;50.882;4.376;2022-12-10T07:29:11;105.40;;;32.42;;
37983;SDS011;64625;50.882;4.376;2022-12-10T07:31:48;110.20;;;32.42;;
37983;SDS011;64625;50.882;4.376;2022-12-10T07:34:17;105.78;;;35.50;;
37983;SDS011;64625;50.882;4.376;2022-12-10T07:36:46;112.45;;;32.85;;
37983;SDS011;64625;50.882;4.376;2022-12-10T07:39:13;112.65;;;35.03;;
37983;SDS011;64625;50.882;4.376;2022-12-10T07:41:43;95.95;;;31.83;;
37983;SDS011;64625;50.882;4.376;2022-12-10T07:44:11;97.47;;;33.65;;
37983;SDS011;64625;50.882;4.376;2022-12-10T07:46:40;100.28;;;35.80;;
37983;SDS011;64625;50.882;4.376;2022-12-10T07:49:06;98.20;;;32.20;;
37983;SDS011;64625;50.882;4.376;2022-12-10T07:51:33;103.45;;;33.88;;
37983;SDS011;64625;50.882;4.376;2022-12-10T07:53:59;90.78;;;30.42;;
37983;SDS011;64625;50.882;4.376;2022-12-10T07:56:25;108.95;;;35.15;;
37983;SDS011;64625;50.882;4.376;2022-12-10T07:58:51;103.63;;;35.50;;
37983;SDS011;64625;50.882;4.376;2022-12-10T08:01:25;119.90;;;37.03;;
37983;SDS011;64625;50.882;4.376;2022-12-10T08:03:52;109.70;;;34.92;;
37983;SDS011;64625;50.882;4.376;2022-12-10T08:06:21;123.85;;;37.72;;
37983;SDS011;64625;50.882;4.376;2022-12-10T08:08:48;112.28;;;34.88;;
37983;SDS011;64625;50.882;4.376;2022-12-10T08:11:15;107.93;;;35.83;;
37983;SDS011;64625;50.882;4.376;2022-12-10T08:13:43;101.60;;;32.47;;
37983;SDS011;64625;50.882;4.376;2022-12-10T08:16:16;108.07;;;35.42;;
37983;SDS011;64625;50.882;4.376;2022-12-10T08:18:45;94.28;;;32.42;;
37983;SDS011;64625;50.882;4.376;2022-12-10T08:21:15;113.60;;;35.15;;
37983;SDS011;64625;50.882;4.376;2022-12-10T08:23:44;106.82;;;32.00;;
37983;SDS011;64625;50.882;4.376;2022-12-10T08:26:23;102.40;;;33.10;;
37983;SDS011;64625;50.882;4.376;2022-12-10T08:28:51;105.75;;;35.22;;
37983;SDS011;64625;50.882;4.376;2022-12-10T08:31:19;110.95;;;34.83;;
37983;SDS011;64625;50.882;4.376;2022-12-10T08:33:46;102.32;;;35.20;;
37983;SDS011;64625;50.882;4.376;2022-12-10T08:36:12;101.75;;;33.97;;
37983;SDS011;64625;50.882;4.376;2022-12-10T08:38:41;105.88;;;33.67;;
37983;SDS011;64625;50.882;4.376;2022-12-10T08:41:08;108.35;;;32.63;;
37983;SDS011;64625;50.882;4.376;2022-12-10T08:43:36;107.40;;;31.52;;
37983;SDS011;64625;50.882;4.376;2022-12-10T08:46:02;104.63;;;34.28;;
37983;SDS011;64625;50.882;4.376;2022-12-10T08:48:29;100.50;;;36.25;;
37983;SDS011;64625;50.882;4.376;2022-12-10T08:50:56;105.03;;;33.30;;
37983;SDS011;64625;50.882;4.376;2022-12-10T08:53:22;106.35;;;30.92;;
37983;SDS011;64625;50.882;4.376;2022-12-10T08:55:52;103.63;;;34.05;;
37983;SDS011;64625;50.882;4.376;2022-12-10T08:58:19;98.43;;;31.08;;
37983;SDS011;64625;50.882;4.376;2022-12-10T09:00:45;104.53;;;32.80;;
37983;SDS011;64625;50.882;4.376;2022-12-10T09:03:12;107.35;;;31.17;;
37983;SDS011;64625;50.882;4.376;2022-12-10T09:05:38;81.85;;;28.92;;
37983;SDS011;64625;50.882;4.376;2022-12-10T09:08:05;84.22;;;29.92;;
37983;SDS011;64625;50.882;4.376;2022-12-10T09:10:31;81.97;;;27.60;;
37983;SDS011;64625;50.882;4.376;2022-12-10T09:12:57;82.63;;;28.52;;
37983;SDS011;64625;50.882;4.376;2022-12-10T09:15:23;85.18;;;26.95;;
37983;SDS011;64625;50.882;4.376;2022-12-10T09:17:49;95.90;;;29.27;;
37983;SDS011;64625;50.882;4.376;2022-12-10T09:20:15;83.03;;;27.50;;
37983;SDS011;64625;50.882;4.376;2022-12-10T09:22:40;96.60;;;31.05;;
37983;SDS011;64625;50.882;4.376;2022-12-10T09:25:08;78.07;;;28.08;;
37983;SDS011;64625;50.882;4.376;2022-12-10T09:27:40;96.78;;;31.83;;
37983;SDS011;64625;50.882;4.376;2022-12-10T09:30:07;92.38;;;30.77;;
37983;SDS011;64625;50.882;4.376;2022-12-10T09:32:33;93.95;;;30.80;;
37983;SDS011;64625;50.882;4.376;2022-12-10T09:34:59;87.38;;;29.38;;
37983;SDS011;64625;50.882;4.376;2022-12-10T09:37:25;94.13;;;31.50;;
37983;SDS011;64625;50.882;4.376;2022-12-10T09:39:51;83.32;;;28.38;;
37983;SDS011;64625;50.882;4.376;2022-12-10T09:45:28;104.83;;;29.17;;
37983;SDS011;64625;50.882;4.376;2022-12-10T09:48:10;88.97;;;26.30;;
37983;SDS011;64625;50.882;4.376;2022-12-10T09:53:22;91.50;;;31.02;;
37983;SDS011;64625;50.882;4.376;2022-12-10T09:55:51;81.82;;;28.40;;
37983;SDS011;64625;50.882;4.376;2022-12-10T09:58:21;101.22;;;32.05;;
37983;SDS011;64625;50.882;4.376;2022-12-10T10:00:54;94.85;;;34.63;;
37983;SDS011;64625;50.882;4.376;2022-12-10T10:03:26;107.57;;;33.58;;
37983;SDS011;64625;50.882;4.376;2022-12-10T10:06:02;110.78;;;32.35;;
37983;SDS011;64625;50.882;4.376;2022-12-10T10:09:14;95.07;;;33.53;;
37983;SDS011;64625;50.882;4.376;2022-12-10T10:11:22;102.45;;;31.58;;
37983;SDS011;64625;50.882;4.376;2022-12-10T10:13:53;91.10;;;30.33;;
37983;SDS011;64625;50.882;4.376;2022-12-10T10:19:30;107.05;;;30.25;;
37983;SDS011;64625;50.882;4.376;2022-12-10T10:21:59;105.57;;;30.35;;
37983;SDS011;64625;50.882;4.376;2022-12-10T10:24:33;99.10;;;34.20;;
37983;SDS011;64625;50.882;4.376;2022-12-10T10:27:09;101.30;;;31.83;;
37983;SDS011;64625;50.882;4.376;2022-12-10T10:29:41;101.22;;;32.75;;
37983;SDS011;64625;50.882;4.376;2022-12-10T10:32:10;100.30;;;31.40;;
37983;SDS011;64625;50.882;4.376;2022-12-10T10:34:39;109.60;;;30.38;;
37983;SDS011;64625;50.882;4.376;2022-12-10T10:37:06;102.88;;;34.40;;
37983;SDS011;64625;50.882;4.376;2022-12-10T10:39:37;109.97;;;34.70;;
37983;SDS011;64625;50.882;4.376;2022-12-10T10:42:07;101.88;;;32.25;;
37983;SDS011;64625;50.882;4.376;2022-12-10T10:44:36;102.15;;;32.88;;
37983;SDS011;64625;50.882;4.376;2022-12-10T10:47:04;112.65;;;33.28;;
37983;SDS011;64625;50.882;4.376;2022-12-10T10:49:52;106.55;;;36.60;;
37983;SDS011;64625;50.882;4.376;2022-12-10T10:52:18;110.45;;;38.20;;
37983;SDS011;64625;50.882;4.376;2022-12-10T10:54:45;96.88;;;32.30;;
37983;SDS011;64625;50.882;4.376;2022-12-10T10:57:14;113.50;;;37.42;;
37983;SDS011;64625;50.882;4.376;2022-12-10T11:00:00;106.65;;;33.08;;
37983;SDS011;64625;50.882;4.376;2022-12-10T11:02:42;105.78;;;30.60;;
37983;SDS011;64625;50.882;4.376;2022-12-10T11:05:14;102.05;;;34.63;;
37983;SDS011;64625;50.882;4.376;2022-12-10T11:07:57;102.60;;;32.45;;
37983;SDS011;64625;50.882;4.376;2022-12-10T11:10:47;105.10;;;33.25;;
37983;SDS011;64625;50.882;4.376;2022-12-10T11:13:34;101.57;;;33.63;;
37983;SDS011;64625;50.882;4.376;2022-12-10T11:18:56;110.30;;;35.50;;
37983;SDS011;64625;50.882;4.376;2022-12-10T11:21:27;95.63;;;33.85;;
37983;SDS011;64625;50.882;4.376;2022-12-10T11:23:55;84.57;;;29.73;;
37983;SDS011;64625;50.882;4.376;2022-12-10T11:29:23;99.10;;;30.80;;
37983;SDS011;64625;50.882;4.376;2022-12-10T11:34:51;99.47;;;30.55;;
37983;SDS011;64625;50.882;4.376;2022-12-10T11:38:15;108.03;;;36.80;;
37983;SDS011;64625;50.882;4.376;2022-12-10T11:41:01;100.83;;;32.90;;
37983;SDS011;64625;50.882;4.376;2022-12-10T11:49:56;103.82;;;32.20;;
37983;SDS011;64625;50.882;4.376;2022-12-10T11:57:53;101.07;;;31.05;;
37983;SDS011;64625;50.882;4.376;2022-12-10T12:00:40;118.13;;;36.28;;
37983;SDS011;64625;50.882;4.376;2022-12-10T12:14:57;86.38;;;28.63;;
37983;SDS011;64625;50.882;4.376;2022-12-10T12:17:27;95.30;;;27.88;;
37983;SDS011;64625;50.882;4.376;2022-12-10T12:20:03;89.03;;;28.88;;
37983;SDS011;64625;50.882;4.376;2022-12-10T12:22:42;88.45;;;28.48;;
37983;SDS011;64625;50.882;4.376;2022-12-10T12:25:17;91.85;;;29.48;;
37983;SDS011;64625;50.882;4.376;2022-12-10T12:28:03;86.43;;;28.38;;
37983;SDS011;64625;50.882;4.376;2022-12-10T12:30:57;96.28;;;28.48;;
37983;SDS011;64625;50.882;4.376;2022-12-10T12:47:02;86.97;;;28.38;;
37983;SDS011;64625;50.882;4.376;2022-12-10T12:49:44;85.95;;;28.17;;
37983;SDS011;64625;50.882;4.376;2022-12-10T12:54:49;79.65;;;26.88;;
37983;SDS011;64625;50.882;4.376;2022-12-10T12:57:22;76.88;;;27.08;;
37983;SDS011;64625;50.882;4.376;2022-12-10T13:10:50;87.28;;;27.80;;
37983;SDS011;64625;50.882;4.376;2022-12-10T13:13:36;79.75;;;26.88;;
37983;SDS011;64625;50.882;4.376;2022-12-10T13:43:52;62.60;;;20.80;;
37983;SDS011;64625;50.882;4.376;2022-12-10T13:48:55;68.63;;;24.85;;
37983;SDS011;64625;50.882;4.376;2022-12-10T13:51:35;68.13;;;25.13;;
37983;SDS011;64625;50.882;4.376;2022-12-10T13:56:39;68.63;;;27.15;;
37983;SDS011;64625;50.882;4.376;2022-12-10T13:59:19;76.03;;;25.98;;
37983;SDS011;64625;50.882;4.376;2022-12-10T14:08:13;71.13;;;23.58;;
37983;SDS011;64625;50.882;4.376;2022-12-10T14:10:45;68.38;;;23.25;;
37983;SDS011;64625;50.882;4.376;2022-12-10T14:13:13;71.13;;;24.40;;
37983;SDS011;64625;50.882;4.376;2022-12-10T14:15:51;70.07;;;22.50;;
37983;SDS011;64625;50.882;4.376;2022-12-10T14:18:20;71.32;;;23.23;;
37983;SDS011;64625;50.882;4.376;2022-12-10T14:20:48;66.80;;;24.60;;
37983;SDS011;64625;50.882;4.376;2022-12-10T14:23:28;67.80;;;22.95;;
37983;SDS011;64625;50.882;4.376;2022-12-10T14:26:21;67.43;;;21.33;;
37983;SDS011;64625;50.882;4.376;2022-12-10T14:28:57;79.25;;;22.70;;
37983;SDS011;64625;50.882;4.376;2022-12-10T14:31:26;68.82;;;22.77;;
37983;SDS011;64625;50.882;4.376;2022-12-10T14:34:01;68.28;;;24.55;;
37983;SDS011;64625;50.882;4.376;2022-12-10T14:36:37;59.13;;;22.77;;
37983;SDS011;64625;50.882;4.376;2022-12-10T14:39:14;74.97;;;23.73;;
37983;SDS011;64625;50.882;4.376;2022-12-10T14:41:47;65.53;;;25.00;;
37983;SDS011;64625;50.882;4.376;2022-12-10T14:44:16;60.05;;;22.33;;
37983;SDS011;64625;50.882;4.376;2022-12-10T14:46:43;73.00;;;22.60;;
37983;SDS011;64625;50.882;4.376;2022-12-10T14:49:16;75.80;;;24.73;;
37983;SDS011;64625;50.882;4.376;2022-12-10T14:51:55;55.75;;;19.63;;
37983;SDS011;64625;50.882;4.376;2022-12-10T14:54:23;58.53;;;21.60;;
37983;SDS011;64625;50.882;4.376;2022-12-10T14:56:58;61.22;;;22.17;;
37983;SDS011;64625;50.882;4.376;2022-12-10T14:59:27;67.32;;;21.52;;
37983;SDS011;64625;50.882;4.376;2022-12-10T15:02:10;80.57;;;21.42;;
37983;SDS011;64625;50.882;4.376;2022-12-10T15:04:43;81.20;;;25.50;;
37983;SDS011;64625;50.882;4.376;2022-12-10T15:07:22;63.90;;;21.88;;
37983;SDS011;64625;50.882;4.376;2022-12-10T15:09:51;64.20;;;21.20;;
37983;SDS011;64625;50.882;4.376;2022-12-10T15:17:58;70.35;;;22.05;;
37983;SDS011;64625;50.882;4.376;2022-12-10T15:20:52;64.57;;;22.45;;
37983;SDS011;64625;50.882;4.376;2022-12-10T15:23:33;80.05;;;23.70;;
37983;SDS011;64625;50.882;4.376;2022-12-10T15:26:04;70.70;;;25.73;;
37983;SDS011;64625;50.882;4.376;2022-12-10T15:28:39;69.68;;;23.80;;
37983;SDS011;64625;50.882;4.376;2022-12-10T15:31:22;61.20;;;21.55;;
37983;SDS011;64625;50.882;4.376;2022-12-10T15:33:56;73.63;;;22.92;;
37983;SDS011;64625;50.882;4.376;2022-12-10T15:39:27;63.55;;;23.58;;
37983;SDS011;64625;50.882;4.376;2022-12-10T15:49:43;65.63;;;23.13;;
37983;SDS011;64625;50.882;4.376;2022-12-10T15:52:13;67.85;;;24.15;;
37983;SDS011;64625;50.882;4.376;2022-12-10T15:54:44;71.93;;;23.65;;
37983;SDS011;64625;50.882;4.376;2022-12-10T15:57:13;68.68;;;23.08;;
37983;SDS011;64625;50.882;4.376;2022-12-10T15:59:41;69.07;;;23.27;;
37983;SDS011;64625;50.882;4.376;2022-12-10T16:04:58;58.40;;;19.65;;
37983;SDS011;64625;50.882;4.376;2022-12-10T16:07:24;58.50;;;22.75;;
37983;SDS011;64625;50.882;4.376;2022-12-10T16:09:50;73.65;;;23.42;;
37983;SDS011;64625;50.882;4.376;2022-12-10T16:12:16;57.83;;;21.13;;
37983;SDS011;64625;50.882;4.376;2022-12-10T16:14:47;61.85;;;23.35;;
37983;SDS011;64625;50.882;4.376;2022-12-10T16:17:21;65.03;;;23.45;;
37983;SDS011;64625;50.882;4.376;2022-12-10T16:19:47;60.13;;;20.02;;
37983;SDS011;64625;50.882;4.376;2022-12-10T16:22:13;55.03;;;23.10;;
37983;SDS011;64625;50.882;4.376;2022-12-10T16:24:39;65.82;;;22.20;;
37983;SDS011;64625;50.882;4.376;2022-12-10T16:27:15;62.17;;;23.85;;
37983;SDS011;64625;50.882;4.376;2022-12-10T16:29:41;70.72;;;23.23;;
37983;SDS011;64625;50.882;4.376;2022-12-10T16:32:11;65.63;;;24.10;;
37983;SDS011;64625;50.882;4.376;2022-12-10T16:34:38;67.72;;;24.10;;
37983;SDS011;64625;50.882;4.376;2022-12-10T16:37:04;60.10;;;22.17;;
37983;SDS011;64625;50.882;4.376;2022-12-10T16:39:31;58.55;;;23.38;;
37983;SDS011;64625;50.882;4.376;2022-12-10T16:41:57;70.45;;;25.70;;
37983;SDS011;64625;50.882;4.376;2022-12-10T16:44:23;66.40;;;23.20;;
37983;SDS011;64625;50.882;4.376;2022-12-10T16:46:49;73.13;;;25.15;;
37983;SDS011;64625;50.882;4.376;2022-12-10T16:49:15;66.88;;;24.35;;
37983;SDS011;64625;50.882;4.376;2022-12-10T16:51:41;56.05;;;23.00;;
37983;SDS011;64625;50.882;4.376;2022-12-10T16:54:11;50.63;;;23.48;;
37983;SDS011;64625;50.882;4.376;2022-12-10T16:56:38;62.95;;;23.80;;
37983;SDS011;64625;50.882;4.376;2022-12-10T16:59:07;57.03;;;21.23;;
37983;SDS011;64625;50.882;4.376;2022-12-10T17:01:34;48.80;;;21.00;;
37983;SDS011;64625;50.882;4.376;2022-12-10T17:04:00;56.50;;;21.60;;
37983;SDS011;64625;50.882;4.376;2022-12-10T17:06:27;63.55;;;24.88;;
37983;SDS011;64625;50.882;4.376;2022-12-10T17:08:54;59.83;;;24.75;;
37983;SDS011;64625;50.882;4.376;2022-12-10T17:14:08;51.35;;;25.10;;
37983;SDS011;64625;50.882;4.376;2022-12-10T17:16:56;65.35;;;25.67;;
37983;SDS011;64625;50.882;4.376;2022-12-10T17:19:27;65.35;;;26.20;;